Time;durP1;ratioP1;P1;durP2;ratioP2;P2;SDS_P1;SDS_P2;PMS_P1;PMS_P2;Temp;Humidity;BMP_temperature;BMP_pressure;BME280_temperature;BME280_humidity;BME280_pressure;Samples;Min_cycle;Max_cycle;Signal;HPM_P1;HPM_P2
2022/06/30 00:01:13;;;;;;;9.07;8.07;;;;;;;17.33;52.82;100518.50;5048876;28;20073;-70
2022/06/30 00:03:39;;;;;;;11.05;10.15;;;;;;;17.23;52.90;100511.16;5037313;28;20136;-68
2022/06/30 00:06:06;;;;;;;8.80;7.90;;;;;;;17.28;52.93;100514.69;5044931;28;20045;-69
2022/06/30 00:08:33;;;;;;;9.98;9.10;;;;;;;17.25;52.62;100501.22;5048561;28;20472;-68
2022/06/30 00:11:06;;;;;;;9.75;9.05;;;;;;;17.29;52.85;100519.16;5039011;28;20087;-68
2022/06/30 00:13:35;;;;;;;14.18;10.20;;;;;;;17.37;52.66;100516.72;5045903;28;20056;-69
2022/06/30 00:16:02;;;;;;;9.40;8.57;;;;;;;17.34;52.62;100509.72;5038159;28;20045;-69
2022/06/30 00:18:29;;;;;;;9.10;8.40;;;;;;;17.17;52.73;100489.91;5042980;28;20049;-68
2022/06/30 00:20:57;;;;;;;8.57;8.00;;;;;;;17.30;52.95;100514.38;5045697;28;20076;-68
2022/06/30 00:23:24;;;;;;;8.55;8.05;;;;;;;17.05;53.11;100477.22;5036890;28;20081;-68
2022/06/30 00:25:52;;;;;;;10.18;8.90;;;;;;;17.22;52.84;100504.69;5035346;28;20087;-68
2022/06/30 00:28:19;;;;;;;9.40;8.48;;;;;;;17.19;52.82;100510.97;5031635;28;20057;-69
2022/06/30 00:30:47;;;;;;;8.80;8.00;;;;;;;17.23;53.37;100506.38;5033305;28;20111;-67
2022/06/30 00:33:14;;;;;;;9.50;8.68;;;;;;;17.11;52.93;100486.41;5042293;28;20132;-69
2022/06/30 00:35:41;;;;;;;14.55;8.77;;;;;;;17.23;52.86;100506.38;5047107;28;20106;-68
2022/06/30 00:38:08;;;;;;;9.40;8.77;;;;;;;17.14;52.97;100505.50;5049632;28;20060;-69
2022/06/30 00:40:37;;;;;;;10.90;8.52;;;;;;;17.11;53.29;100480.75;5044287;28;20055;-68
2022/06/30 00:43:04;;;;;;;9.73;8.75;;;;;;;17.17;53.36;100484.28;5047354;28;20128;-68
2022/06/30 00:45:31;;;;;;;10.40;9.57;;;;;;;17.06;53.41;100469.63;5072535;28;20041;-69
2022/06/30 00:48:01;;;;;;;9.88;9.05;;;;;;;17.03;53.04;100462.63;5046095;28;20149;-68
2022/06/30 00:50:28;;;;;;;10.80;9.90;;;;;;;17.27;53.24;100513.03;5046778;28;20088;-69
2022/06/30 00:52:56;;;;;;;10.23;9.23;;;;;;;17.20;53.15;100495.72;5050118;28;20132;-69
2022/06/30 00:55:24;;;;;;;10.10;9.50;;;;;;;17.19;53.55;100498.88;5044205;28;20132;-68
2022/06/30 00:57:54;;;;;;;10.88;10.18;;;;;;;17.12;53.14;100476.75;5044226;28;20088;-69
2022/06/30 01:00:23;;;;;;;9.40;8.65;;;;;;;17.19;53.53;100496.03;5050998;28;20220;-67
2022/06/30 01:02:51;;;;;;;9.60;8.80;;;;;;;17.01;53.60;100464.94;5044206;28;20045;-69
2022/06/30 01:05:21;;;;;;;10.85;8.70;;;;;;;17.08;53.15;100472.09;5048482;28;20068;-69
2022/06/30 01:07:49;;;;;;;9.38;8.60;;;;;;;16.84;53.25;100435.84;5049635;28;20076;-69
2022/06/30 01:13:02;;;;;;;9.80;8.38;;;;;;;17.03;53.62;100484.38;5038621;28;20045;-68
2022/06/30 01:15:29;;;;;;;12.48;9.27;;;;;;;17.08;53.83;100498.34;5043562;28;20080;-68
2022/06/30 01:17:56;;;;;;;8.10;7.60;;;;;;;16.97;53.38;100480.88;5043421;28;20083;-69
2022/06/30 01:20:32;;;;;;;7.95;7.45;;;;;;;17.03;53.63;100496.50;5044095;28;20128;-69
2022/06/30 01:23:01;;;;;;;10.32;8.50;;;;;;;17.08;53.43;100487.03;5042804;28;20073;-69
2022/06/30 01:25:29;;;;;;;9.05;8.15;;;;;;;17.07;53.39;100485.38;5045833;28;20536;-68
2022/06/30 01:27:56;;;;;;;8.95;7.95;;;;;;;17.02;53.62;100483.53;5051346;28;20131;-68
2022/06/30 01:30:23;;;;;;;9.05;8.35;;;;;;;17.02;53.94;100488.34;5072260;28;20476;-68
2022/06/30 01:32:51;;;;;;;11.03;8.23;;;;;;;16.89;53.92;100476.03;5048355;28;20586;-68
2022/06/30 01:35:18;;;;;;;8.48;7.55;;;;;;;16.87;54.03;100469.03;5049982;28;20419;-68
2022/06/30 01:37:54;;;;;;;9.93;9.03;;;;;;;16.96;54.20;100486.84;5042535;28;20095;-68
2022/06/30 01:40:23;;;;;;;9.10;7.78;;;;;;;16.94;54.18;100469.41;5045192;28;20152;-67
2022/06/30 01:42:51;;;;;;;10.38;8.13;;;;;;;16.85;54.22;100471.34;5047704;28;20407;-67
2022/06/30 01:45:19;;;;;;;8.63;8.00;;;;;;;16.71;54.45;100446.84;5043943;28;20092;-69
2022/06/30 01:47:46;;;;;;;9.82;7.60;;;;;;;16.70;54.55;100445.22;5040554;28;20083;-68
2022/06/30 01:50:16;;;;;;;13.77;8.02;;;;;;;16.81;54.53;100469.16;5039455;28;20397;-68
2022/06/30 01:52:43;;;;;;;11.23;8.13;;;;;;;16.80;54.79;100475.16;5045167;28;20131;-68
2022/06/30 01:55:11;;;;;;;8.32;7.60;;;;;;;16.71;54.70;100463.78;5048832;28;20083;-68
2022/06/30 01:57:38;;;;;;;9.40;8.52;;;;;;;16.61;55.14;100449.13;5046320;28;20570;-67
2022/06/30 02:00:09;;;;;;;8.90;8.10;;;;;;;16.41;54.53;100405.41;5040572;28;20132;-68
2022/06/30 02:02:35;;;;;;;;;;;;;;;16.57;54.82;100465.88;5041704;28;20140;-67
2022/06/30 02:05:03;;;;;;;10.73;8.25;;;;;;;16.47;55.02;100454.84;5043486;28;20365;-67
2022/06/30 02:07:30;;;;;;;9.80;8.80;;;;;;;16.39;55.36;100458.47;5039113;28;20129;-65
2022/06/30 02:09:57;;;;;;;9.50;8.60;;;;;;;16.38;55.46;100470.91;5046092;28;20085;-66
2022/06/30 02:15:11;;;;;;;10.05;9.05;;;;;;;16.20;55.79;100451.03;5036665;28;20081;-68
2022/06/30 02:17:39;;;;;;;9.63;8.82;;;;;;;16.23;56.05;100453.22;5042493;28;20132;-68
2022/06/30 02:20:08;;;;;;;10.57;9.25;;;;;;;16.25;56.15;100467.81;5045091;28;20159;-67
2022/06/30 02:22:35;;;;;;;10.30;9.30;;;;;;;16.28;55.83;100464.38;5045867;28;20507;-68
2022/06/30 02:25:04;;;;;;;9.90;9.00;;;;;;;16.33;55.85;100457.75;5048652;28;20088;-68
2022/06/30 02:27:31;;;;;;;9.50;8.80;;;;;;;16.01;55.77;100402.53;5046033;28;20084;-67
2022/06/30 02:29:58;;;;;;;9.27;8.68;;;;;;;16.43;55.27;100471.59;5039010;28;20339;-68
2022/06/30 02:32:25;;;;;;;11.48;9.27;;;;;;;16.41;55.73;100458.97;5037250;28;20133;-67
2022/06/30 02:34:53;;;;;;;14.13;9.40;;;;;;;16.34;55.39;100450.97;5042227;28;20079;-67
2022/06/30 02:37:20;;;;;;;20.43;10.00;;;;;;;16.16;55.24;100432.28;5039560;28;20129;-67
2022/06/30 02:39:46;;;;;;;10.20;9.20;;;;;;;16.31;55.50;100469.38;5048415;28;20365;-67
2022/06/30 02:42:13;;;;;;;9.35;8.60;;;;;;;16.44;55.58;100478.06;5032982;28;20124;-68
2022/06/30 02:44:40;;;;;;;9.88;8.98;;;;;;;16.46;55.74;100481.38;5050314;28;20595;-67
2022/06/30 02:47:07;;;;;;;9.75;8.90;;;;;;;16.32;55.84;100459.75;5047581;28;20140;-67
2022/06/30 02:49:36;;;;;;;10.20;8.60;;;;;;;16.49;55.90;100489.22;5044459;28;20053;-68
2022/06/30 02:52:03;;;;;;;10.98;8.57;;;;;;;16.35;55.81;100466.75;5035074;28;20055;-67
2022/06/30 02:54:30;;;;;;;10.05;8.30;;;;;;;16.38;55.78;100468.09;5041626;28;20156;-68
2022/06/30 02:56:57;;;;;;;9.80;8.90;;;;;;;16.42;55.69;100480.38;5041366;28;20533;-66
2022/06/30 02:59:23;;;;;;;10.63;9.60;;;;;;;16.20;55.63;100442.59;5040677;28;20049;-66
2022/06/30 03:01:51;;;;;;;10.10;9.13;;;;;;;16.37;55.58;100469.22;5045440;28;20105;-65
2022/06/30 03:04:18;;;;;;;12.15;9.63;;;;;;;16.35;55.73;100463.91;5048703;28;20045;-67
2022/06/30 03:06:45;;;;;;;9.55;8.85;;;;;;;16.38;55.84;100468.91;5049791;28;20064;-65
2022/06/30 03:09:12;;;;;;;9.23;8.45;;;;;;;16.39;55.80;100458.47;5048826;28;20545;-68
2022/06/30 03:11:39;;;;;;;11.82;9.18;;;;;;;16.38;55.35;100466.09;5046032;28;20128;-68
2022/06/30 03:14:17;;;;;;;9.40;8.75;;;;;;;16.25;55.47;100456.56;5051399;28;20219;-68
2022/06/30 03:16:45;;;;;;;8.60;8.10;;;;;;;16.09;55.08;100413.84;5047936;28;20052;-68
2022/06/30 03:19:12;;;;;;;9.07;8.27;;;;;;;16.40;55.06;100462.94;5039406;28;20476;-69
2022/06/30 03:21:39;;;;;;;8.10;7.43;;;;;;;16.44;54.77;100464.78;5044964;28;20102;-68
2022/06/30 03:24:06;;;;;;;9.73;8.90;;;;;;;16.14;54.64;100406.41;5040183;28;20132;-67
2022/06/30 03:26:33;;;;;;;9.93;9.00;;;;;;;16.45;54.49;100454.38;5039422;28;20088;-68
2022/06/30 03:29:00;;;;;;;10.15;9.13;;;;;;;16.28;54.50;100429.72;5039740;28;20565;-68
2022/06/30 03:31:26;;;;;;;9.80;8.93;;;;;;;16.49;54.80;100466.66;5049238;28;20569;-68
2022/06/30 03:33:53;;;;;;;8.60;7.83;;;;;;;16.40;54.57;100455.31;5045423;28;20500;-67
2022/06/30 03:36:20;;;;;;;9.18;8.68;;;;;;;16.41;54.45;100447.69;5045740;28;20076;-68
2022/06/30 03:38:47;;;;;;;9.32;8.70;;;;;;;16.41;54.18;100451.38;5042350;28;20123;-68
2022/06/30 03:41:14;;;;;;;9.80;9.20;;;;;;;16.41;54.28;100453.31;5049433;28;20080;-67
2022/06/30 03:43:41;;;;;;;9.80;9.10;;;;;;;16.26;54.30;100427.22;5043369;28;20458;-68
2022/06/30 03:46:08;;;;;;;9.82;8.90;;;;;;;16.27;54.05;100431.72;5041220;28;20053;-67
2022/06/30 03:48:35;;;;;;;10.30;9.20;;;;;;;16.47;54.44;100466.97;5044900;28;20442;-68
2022/06/30 03:51:03;;;;;;;9.77;9.00;;;;;;;16.42;53.87;100463.47;5037543;28;20045;-68
2022/06/30 03:53:30;;;;;;;9.60;8.90;;;;;;;16.30;54.41;100458.41;5046851;28;20060;-69
2022/06/30 03:55:57;;;;;;;9.70;9.00;;;;;;;16.24;54.19;100446.44;5042604;28;20527;-68
2022/06/30 03:58:24;;;;;;;9.63;8.77;;;;;;;16.38;54.11;100456.81;5047052;28;20083;-69
2022/06/30 04:00:51;;;;;;;9.00;8.50;;;;;;;16.21;54.41;100435.81;5044317;28;20079;-69
2022/06/30 04:03:18;;;;;;;8.73;8.13;;;;;;;16.05;54.36;100420.44;5038051;28;20124;-68
2022/06/30 04:05:44;;;;;;;9.07;8.38;;;;;;;16.02;53.85;100409.81;5043414;28;20135;-68
2022/06/30 04:08:11;;;;;;;8.77;8.02;;;;;;;16.17;53.92;100437.63;5042160;28;20076;-68
2022/06/30 04:10:38;;;;;;;8.60;7.77;;;;;;;16.14;53.85;100435.44;5051411;28;20164;-68
2022/06/30 04:13:05;;;;;;;8.75;8.07;;;;;;;16.20;53.74;100442.59;5048778;28;20139;-67
2022/06/30 04:15:32;;;;;;;9.43;7.78;;;;;;;16.31;53.83;100462.91;5044242;28;20149;-68
2022/06/30 04:17:59;;;;;;;9.17;8.30;;;;;;;16.22;53.75;100457.19;5040015;28;20055;-67
2022/06/30 04:20:25;;;;;;;8.45;7.85;;;;;;;16.27;53.92;100462.72;5041259;28;20092;-68
2022/06/30 04:22:53;;;;;;;9.20;8.37;;;;;;;16.27;54.17;100459.03;5038378;28;20091;-67
2022/06/30 04:25:20;;;;;;;11.43;8.73;;;;;;;16.29;54.24;100473.66;5046831;28;20084;-68
2022/06/30 04:27:52;;;;;;;9.15;8.40;;;;;;;16.07;54.22;100440.69;5048200;28;20404;-67
2022/06/30 04:32:37;;;;;;;8.73;8.10;;;;;;;16.21;54.08;100464.00;5052985;28;20129;-67
2022/06/30 04:33:07;;;;;;;9.20;8.30;;;;;;;16.04;54.16;100441.34;5043089;28;20080;-67
2022/06/30 04:35:35;;;;;;;9.03;8.20;;;;;;;16.17;54.34;100470.56;5035571;28;20739;-67
2022/06/30 04:38:04;;;;;;;7.87;7.40;;;;;;;16.13;54.45;100472.38;5050013;28;20041;-68
2022/06/30 04:43:16;;;;;;;8.05;7.45;;;;;;;16.09;54.43;100478.63;5047102;28;20115;-68
2022/06/30 04:45:43;;;;;;;8.37;7.63;;;;;;;16.06;54.64;100472.81;5043779;28;20136;-68
2022/06/30 04:48:11;;;;;;;9.00;8.40;;;;;;;15.76;54.81;100429.31;5041054;28;20136;-66
2022/06/30 04:50:39;;;;;;;8.43;7.70;;;;;;;15.92;55.18;100463.59;5051703;28;20053;-67
2022/06/30 04:53:06;;;;;;;10.90;10.00;;;;;;;15.77;54.98;100443.09;5047801;28;20127;-67
2022/06/30 04:55:35;;;;;;;9.33;8.00;;;;;;;16.02;55.00;100488.69;5052750;28;20076;-67
2022/06/30 04:58:02;;;;;;;9.30;8.60;;;;;;;16.04;55.11;100484.41;5037911;28;20134;-67
2022/06/30 05:00:29;;;;;;;9.33;7.63;;;;;;;15.96;54.94;100476.72;5050355;28;21264;-67
2022/06/30 05:02:55;;;;;;;8.60;7.88;;;;;;;15.91;55.13;100476.00;5049698;28;20075;-66
2022/06/30 05:05:22;;;;;;;7.90;7.10;;;;;;;15.96;55.03;100490.78;5055895;28;20057;-67
2022/06/30 05:07:49;;;;;;;8.37;7.33;;;;;;;15.75;55.10;100456.66;5049637;28;20088;-67
2022/06/30 05:10:16;;;;;;;9.43;7.93;;;;;;;15.91;55.21;100476.84;5044811;28;20144;-67
2022/06/30 05:12:43;;;;;;;10.77;8.07;;;;;;;15.86;55.11;100466.53;5039825;28;20126;-66
2022/06/30 05:15:10;;;;;;;9.83;8.40;;;;;;;15.75;55.19;100442.56;5048502;28;20088;-67
2022/06/30 05:17:37;;;;;;;8.47;8.00;;;;;;;15.95;54.75;100482.66;5044244;28;20491;-67
2022/06/30 05:20:05;;;;;;;8.80;8.10;;;;;;;15.94;54.68;100469.75;5038131;28;20049;-67
2022/06/30 05:22:32;;;;;;;7.70;7.10;;;;;;;15.84;54.68;100460.38;5039818;28;20425;-67
2022/06/30 05:27:46;;;;;;;9.13;7.70;;;;;;;15.72;54.97;100426.31;5046908;28;20048;-69
2022/06/30 05:30:16;;;;;;;9.60;8.53;;;;;;;15.97;54.89;100464.31;5047730;28;20041;-68
2022/06/30 05:32:43;;;;;;;8.50;7.93;;;;;;;16.06;54.52;100475.63;5047625;28;20292;-68
2022/06/30 05:35:10;;;;;;;9.30;8.50;;;;;;;16.09;55.03;100477.81;5047039;28;20131;-68
2022/06/30 05:37:38;;;;;;;12.00;8.70;;;;;;;16.14;54.96;100485.28;5058530;28;20100;-65
2022/06/30 05:40:05;;;;;;;10.80;8.83;;;;;;;16.17;54.86;100493.97;5040580;28;20100;-68
2022/06/30 05:42:32;;;;;;;8.80;8.13;;;;;;;16.17;55.11;100490.28;5044989;28;20076;-68
2022/06/30 05:44:59;;;;;;;13.63;8.53;;;;;;;16.12;55.02;100488.44;5038992;28;20077;-68
2022/06/30 05:47:26;;;;;;;10.98;9.82;;;;;;;16.27;54.73;100501.31;5041787;28;20101;-69
2022/06/30 05:49:53;;;;;;;10.50;8.85;;;;;;;16.27;54.68;100499.34;5048139;28;20496;-69
2022/06/30 05:52:20;;;;;;;9.17;8.23;;;;;;;16.20;54.85;100479.22;5036662;28;20076;-68
2022/06/30 05:54:47;;;;;;;9.33;8.63;;;;;;;16.37;54.85;100505.84;5045912;28;20052;-68
2022/06/30 05:57:14;;;;;;;8.55;8.05;;;;;;;16.38;54.42;100505.56;5041991;28;20148;-70
2022/06/30 05:59:41;;;;;;;9.67;8.73;;;;;;;16.40;54.50;100500.41;5041431;28;20079;-69
2022/06/30 06:02:08;;;;;;;11.63;9.03;;;;;;;16.46;54.34;100504.78;5048236;28;20543;-69
2022/06/30 06:04:35;;;;;;;12.63;11.37;;;;;;;16.40;54.56;100489.13;5050368;28;20041;-70
2022/06/30 06:07:03;;;;;;;10.10;9.40;;;;;;;16.36;54.25;100482.47;5049202;28;20079;-69
2022/06/30 06:09:30;;;;;;;9.83;9.30;;;;;;;16.55;54.33;100502.03;5040164;28;20048;-69
2022/06/30 06:11:57;;;;;;;10.20;9.20;;;;;;;16.59;54.27;100511.50;5039470;28;20091;-69
2022/06/30 06:14:24;;;;;;;11.67;8.67;;;;;;;16.25;54.09;100452.91;5033507;28;20053;-70
2022/06/30 06:16:51;;;;;;;11.43;9.17;;;;;;;16.62;54.21;100510.84;5065180;28;20081;-69
2022/06/30 06:19:18;;;;;;;8.70;8.10;;;;;;;16.64;54.11;100505.69;5038009;28;20140;-65
2022/06/30 06:21:49;;;;;;;10.05;9.18;;;;;;;16.84;54.32;100507.19;5042406;28;20517;-65
2022/06/30 06:24:17;;;;;;;9.80;9.05;;;;;;;16.87;54.00;100485.97;5035490;28;20092;-66
2022/06/30 06:26:44;;;;;;;10.60;9.35;;;;;;;17.24;53.51;100508.03;5032000;28;20153;-65
2022/06/30 06:29:14;;;;;;;9.35;8.80;;;;;;;17.35;53.25;100504.91;5031930;28;20048;-65
2022/06/30 06:31:41;;;;;;;9.98;9.07;;;;;;;17.78;53.07;100510.69;5032213;28;20564;-65
2022/06/30 06:34:09;;;;;;;9.80;8.98;;;;;;;18.31;52.34;100506.69;5033785;28;20044;-65
2022/06/30 06:36:36;;;;;;;10.23;8.98;;;;;;;18.99;51.97;100501.25;5031333;28;20777;-66
2022/06/30 06:39:03;;;;;;;10.60;9.70;;;;;;;19.66;51.01;100516.63;5032975;28;20084;-65
2022/06/30 06:41:30;;;;;;;9.27;8.50;;;;;;;20.19;50.32;100512.22;5035679;28;20065;-65
2022/06/30 06:43:57;;;;;;;9.52;8.55;;;;;;;20.84;49.75;100512.59;5034037;28;20052;-65
2022/06/30 06:46:27;;;;;;;9.02;8.27;;;;;;;21.33;48.82;100506.16;5031649;28;20225;-69
2022/06/30 06:48:55;;;;;;;;;;;;;;;21.84;49.22;100523.69;5036087;28;20773;-67
2022/06/30 06:51:22;;;;;;;8.77;8.13;;;;;;;21.92;48.33;100526.41;5036139;28;19971;-66
2022/06/30 06:53:49;;;;;;;10.10;9.50;;;;;;;22.06;47.94;100530.91;5032902;28;20045;-64
2022/06/30 06:56:16;;;;;;;9.60;9.10;;;;;;;22.33;47.07;100532.16;5035497;28;20152;-65
2022/06/30 06:58:43;;;;;;;10.63;9.70;;;;;;;22.55;46.42;100531.59;5040163;28;20787;-65
2022/06/30 07:01:10;;;;;;;12.13;11.43;;;;;;;22.65;45.88;100536.75;5037512;28;20171;-65
2022/06/30 07:03:37;;;;;;;10.45;9.48;;;;;;;22.87;45.40;100537.34;5039403;28;20136;-65
2022/06/30 07:06:05;;;;;;;9.85;9.30;;;;;;;23.08;44.95;100534.31;5047899;28;20438;-64
2022/06/30 07:08:32;;;;;;;8.68;7.85;;;;;;;23.35;44.56;100539.09;5042898;28;20140;-65
2022/06/30 07:10:59;;;;;;;8.88;8.32;;;;;;;23.71;43.78;100537.16;5044925;28;20515;-65
2022/06/30 07:13:27;;;;;;;12.82;8.23;;;;;;;24.00;43.34;100537.81;5047830;28;20145;-65
2022/06/30 07:15:54;;;;;;;8.73;7.93;;;;;;;24.09;42.82;100525.00;5044379;28;20079;-65
2022/06/30 07:18:21;;;;;;;8.82;7.90;;;;;;;24.27;42.27;100536.00;5050203;28;20483;-64
2022/06/30 07:20:48;;;;;;;8.93;8.20;;;;;;;24.45;41.94;100537.25;5049421;28;20128;-65
2022/06/30 07:23:15;;;;;;;9.50;8.65;;;;;;;24.76;41.55;100555.44;5044644;28;20132;-65
2022/06/30 07:25:57;;;;;;;8.23;7.72;;;;;;;24.83;41.46;100556.41;5037088;28;20046;-65
2022/06/30 07:28:25;;;;;;;9.48;8.88;;;;;;;24.85;41.21;100538.88;5043508;28;20079;-64
2022/06/30 07:31:12;;;;;;;8.57;7.97;;;;;;;25.06;40.88;100556.44;5031212;28;20587;-66
2022/06/30 07:33:42;;;;;;;8.77;8.27;;;;;;;24.94;40.83;100547.22;5033432;28;20521;-65
2022/06/30 07:36:10;;;;;;;9.20;8.50;;;;;;;24.66;40.57;100518.91;5046766;28;20098;-65
2022/06/30 07:38:36;;;;;;;10.25;8.77;;;;;;;24.69;40.29;100541.84;5039280;28;20102;-66
2022/06/30 07:41:03;;;;;;;10.52;9.00;;;;;;;24.77;40.04;100566.47;5043909;28;20482;-65
2022/06/30 07:43:30;;;;;;;11.68;10.68;;;;;;;24.79;39.85;100551.81;5041715;28;20168;-65
2022/06/30 07:45:57;;;;;;;10.80;9.95;;;;;;;24.74;39.81;100537.84;5041966;28;20058;-65
2022/06/30 07:48:24;;;;;;;8.93;8.23;;;;;;;24.95;39.94;100560.28;5039163;28;20049;-66
2022/06/30 07:50:51;;;;;;;8.60;7.90;;;;;;;25.02;39.40;100548.97;5040512;28;20127;-65
2022/06/30 07:53:18;;;;;;;8.60;7.78;;;;;;;25.27;39.00;100558.91;5042029;28;20484;-66
2022/06/30 07:55:45;;;;;;;8.40;7.80;;;;;;;25.24;38.60;100551.06;5046892;28;20080;-66
2022/06/30 07:58:12;;;;;;;9.25;8.57;;;;;;;25.41;38.38;100541.16;5043172;28;20136;-67
2022/06/30 08:00:38;;;;;;;10.05;9.32;;;;;;;25.56;38.01;100550.00;5041916;28;20132;-66
2022/06/30 08:03:05;;;;;;;8.93;8.43;;;;;;;25.84;37.98;100538.22;5043171;28;20049;-66
2022/06/30 08:05:32;;;;;;;8.65;7.97;;;;;;;26.20;37.48;100557.56;5035544;28;20069;-66
2022/06/30 08:07:59;;;;;;;13.68;8.63;;;;;;;26.11;37.31;100565.59;5038783;28;20128;-66
2022/06/30 08:10:26;;;;;;;20.65;14.55;;;;;;;25.97;37.51;100571.13;5037404;28;20068;-65
2022/06/30 08:12:53;;;;;;;10.18;9.15;;;;;;;25.94;37.58;100571.88;5043657;28;20107;-65
2022/06/30 08:15:20;;;;;;;10.45;9.75;;;;;;;26.18;37.11;100574.28;5040391;28;20048;-65
2022/06/30 08:17:47;;;;;;;9.48;8.70;;;;;;;26.29;37.00;100567.88;5041400;28;20574;-66
2022/06/30 08:20:14;;;;;;;9.13;8.50;;;;;;;26.48;37.08;100559.19;5044335;28;20136;-65
2022/06/30 08:22:40;;;;;;;11.52;10.60;;;;;;;26.48;36.67;100546.94;5036529;28;20088;-66
2022/06/30 08:25:07;;;;;;;10.07;9.38;;;;;;;26.58;36.50;100572.84;5034442;28;20098;-65
2022/06/30 08:27:34;;;;;;;10.07;9.27;;;;;;;26.48;36.30;100558.38;5035043;28;20138;-66
2022/06/30 08:30:01;;;;;;;11.85;11.05;;;;;;;26.65;36.08;100561.47;5041261;28;20132;-66
2022/06/30 08:32:29;;;;;;;12.02;11.32;;;;;;;26.83;35.90;100552.25;5042917;28;20911;-66
2022/06/30 08:34:56;;;;;;;9.50;8.63;;;;;;;26.76;35.42;100524.34;5045655;28;20099;-65
2022/06/30 08:37:23;;;;;;;9.00;8.38;;;;;;;27.09;35.22;100568.53;5037850;28;20450;-65
2022/06/30 08:42:36;;;;;;;9.93;9.23;;;;;;;27.40;34.73;100562.31;5041580;28;20492;-65
2022/06/30 08:45:17;;;;;;;10.48;9.77;;;;;;;27.21;34.21;100553.94;5040515;28;20048;-66
2022/06/30 08:47:46;;;;;;;11.43;10.80;;;;;;;27.39;34.43;100557.81;5045517;28;20103;-65
2022/06/30 08:50:15;;;;;;;10.68;10.07;;;;;;;27.52;34.37;100555.47;5042629;28;20578;-65
2022/06/30 08:52:47;;;;;;;9.18;8.25;;;;;;;27.39;34.08;100554.13;5041786;28;20604;-65
2022/06/30 08:55:15;;;;;;;13.93;10.15;;;;;;;27.37;34.28;100553.69;5047934;28;20512;-66
2022/06/30 08:57:45;;;;;;;11.80;10.98;;;;;;;27.55;34.15;100550.97;5045706;28;20491;-66
2022/06/30 09:00:14;;;;;;;10.73;10.05;;;;;;;27.70;33.33;100538.41;5047052;28;20063;-65
2022/06/30 09:02:42;;;;;;;9.10;8.50;;;;;;;27.60;33.24;100548.56;5039108;28;20045;-64
2022/06/30 09:05:09;;;;;;;10.82;10.02;;;;;;;27.60;33.20;100556.34;5039209;28;20079;-65
2022/06/30 09:07:37;;;;;;;8.63;8.05;;;;;;;27.82;33.15;100560.22;5042706;28;20053;-66
2022/06/30 09:10:05;;;;;;;8.77;8.02;;;;;;;27.81;32.98;100556.53;5040353;28;20052;-65
2022/06/30 09:12:32;;;;;;;9.02;8.35;;;;;;;28.01;32.60;100557.09;5038898;28;20081;-65
2022/06/30 09:15:00;;;;;;;8.88;8.13;;;;;;;28.15;32.22;100544.06;5048160;28;20122;-65
2022/06/30 09:17:29;;;;;;;10.00;9.25;;;;;;;28.24;32.08;100551.09;5045418;28;20076;-66
2022/06/30 09:20:08;;;;;;;8.10;7.57;;;;;;;28.33;32.04;100557.28;5042626;28;20454;-65
2022/06/30 09:22:38;;;;;;;8.27;7.72;;;;;;;28.31;31.51;100553.19;5034395;28;20137;-65
2022/06/30 09:25:06;;;;;;;;;;;;;;;28.03;33.44;100554.63;5045447;28;20049;-64
2022/06/30 09:27:35;;;;;;;9.02;8.27;;;;;;;28.21;32.24;100533.84;5043247;28;19963;-66
2022/06/30 09:30:11;;;;;;;9.27;8.68;;;;;;;28.56;31.91;100550.47;5044026;28;20167;-65
2022/06/30 09:32:54;;;;;;;9.20;8.50;;;;;;;28.53;31.88;100531.16;5047568;28;20080;-66
2022/06/30 09:35:24;;;;;;;8.38;7.65;;;;;;;28.54;31.53;100553.72;5046089;28;20507;-66
2022/06/30 09:38:04;;;;;;;8.77;8.20;;;;;;;28.51;31.18;100551.69;5043937;28;20073;-66
2022/06/30 09:41:01;;;;;;;8.60;8.05;;;;;;;28.37;31.84;100545.81;5048348;28;20111;-65
2022/06/30 09:43:36;;;;;;;9.65;8.77;;;;;;;28.67;31.12;100554.19;5046363;28;20049;-66
2022/06/30 09:46:04;;;;;;;9.57;8.77;;;;;;;28.98;31.05;100557.59;5044395;28;20139;-66
2022/06/30 09:48:32;;;;;;;9.20;8.50;;;;;;;29.07;30.57;100514.94;5047669;28;20588;-66
2022/06/30 09:51:03;;;;;;;11.50;9.93;;;;;;;29.42;30.11;100547.84;5039169;28;20080;-65
2022/06/30 09:53:30;;;;;;;9.63;8.60;;;;;;;29.41;30.08;100558.53;5042813;28;20053;-66
2022/06/30 09:56:13;;;;;;;9.00;8.40;;;;;;;29.46;30.09;100537.97;5040927;28;20053;-65
2022/06/30 09:58:42;;;;;;;9.65;8.88;;;;;;;29.76;29.85;100542.53;5043716;28;20219;-66
2022/06/30 10:01:10;;;;;;;10.95;9.55;;;;;;;29.78;29.67;100530.59;5041048;28;20050;-66
2022/06/30 10:03:45;;;;;;;11.95;8.85;;;;;;;29.84;29.81;100547.03;5042418;28;20110;-65
2022/06/30 10:06:15;;;;;;;10.38;8.43;;;;;;;29.74;29.34;100524.84;5042435;28;20106;-64
2022/06/30 10:08:42;;;;;;;8.60;7.75;;;;;;;29.96;29.17;100554.44;5038866;28;20083;-66
2022/06/30 10:11:09;;;;;;;9.65;8.95;;;;;;;30.01;29.31;100544.53;5042911;28;20049;-65
2022/06/30 10:13:42;;;;;;;12.15;11.32;;;;;;;30.10;28.89;100530.56;5040808;28;20080;-66
2022/06/30 10:16:10;;;;;;;9.40;8.50;;;;;;;30.26;28.60;100538.75;5040165;28;20072;-66
2022/06/30 10:18:39;;;;;;;8.65;8.02;;;;;;;30.34;28.29;100546.16;5041730;28;20049;-66
2022/06/30 10:21:08;;;;;;;10.90;10.02;;;;;;;30.65;28.39;100559.63;5046129;28;20069;-66
2022/06/30 10:23:35;;;;;;;11.30;10.50;;;;;;;30.77;28.32;100538.19;5042110;28;20056;-65
2022/06/30 10:26:04;;;;;;;9.48;8.75;;;;;;;30.79;27.59;100555.06;5038491;28;20067;-65
2022/06/30 10:28:31;;;;;;;13.00;12.13;;;;;;;30.83;28.06;100567.38;5038174;28;20576;-65
2022/06/30 10:31:13;;;;;;;10.05;9.45;;;;;;;30.94;27.91;100550.88;5041025;28;21031;-65
2022/06/30 10:33:52;;;;;;;9.65;8.95;;;;;;;31.19;27.38;100559.38;5041829;28;20056;-65
2022/06/30 10:36:38;;;;;;;8.98;8.27;;;;;;;31.31;26.95;100564.63;5043111;28;20143;-65
2022/06/30 10:39:25;;;;;;;9.65;8.98;;;;;;;30.96;27.38;100507.19;5041654;28;20140;-65
2022/06/30 10:41:52;;;;;;;9.70;9.15;;;;;;;31.33;27.29;100567.94;5040758;28;20088;-65
2022/06/30 10:44:22;;;;;;;11.55;10.65;;;;;;;31.09;26.48;100563.13;5036546;28;20139;-65
2022/06/30 10:46:56;;;;;;;11.30;10.10;;;;;;;31.07;26.66;100577.16;5036880;28;20053;-66
2022/06/30 10:49:28;;;;;;;10.20;9.52;;;;;;;31.17;27.44;100558.97;5033805;28;20111;-66
2022/06/30 10:51:57;;;;;;;9.85;9.15;;;;;;;31.38;26.35;100552.25;5045771;28;20103;-64
2022/06/30 10:54:29;;;;;;;10.02;9.23;;;;;;;31.39;26.64;100543.19;5048006;28;20140;-66
2022/06/30 10:56:57;;;;;;;11.77;11.07;;;;;;;31.30;26.69;100545.69;5041687;28;20099;-66
2022/06/30 10:59:37;;;;;;;10.07;9.27;;;;;;;31.28;26.89;100553.97;5051896;28;20128;-66
2022/06/30 11:02:10;;;;;;;9.38;8.77;;;;;;;31.10;26.85;100547.47;5050600;28;20055;-65
2022/06/30 11:04:41;;;;;;;12.15;11.38;;;;;;;31.10;26.54;100541.69;5044872;28;20156;-65
2022/06/30 11:07:21;;;;;;;9.98;9.27;;;;;;;31.12;26.66;100525.63;5049573;28;20420;-65
2022/06/30 11:09:49;;;;;;;11.55;10.93;;;;;;;31.17;26.02;100556.88;5049323;28;20587;-65
2022/06/30 11:12:39;;;;;;;11.85;11.15;;;;;;;31.08;27.10;100544.19;5053204;28;20049;-65
2022/06/30 11:15:06;;;;;;;10.30;9.40;;;;;;;31.32;26.24;100554.78;5051194;28;20105;-65
2022/06/30 11:17:39;;;;;;;10.05;9.38;;;;;;;31.32;26.26;100531.69;5051143;28;20582;-65
2022/06/30 11:20:07;;;;;;;9.32;8.63;;;;;;;31.37;26.01;100550.63;5052735;28;20478;-65
2022/06/30 11:22:35;;;;;;;9.93;9.18;;;;;;;31.39;26.20;100553.91;5048077;28;20076;-65
2022/06/30 11:25:05;;;;;;;8.95;8.20;;;;;;;31.64;26.06;100553.69;5051255;28;20128;-65
2022/06/30 11:27:33;;;;;;;9.93;9.25;;;;;;;31.63;26.17;100514.53;5051840;28;20076;-65
2022/06/30 11:30:03;;;;;;;13.07;9.95;;;;;;;32.02;26.68;100531.50;5049993;28;20088;-65
2022/06/30 11:32:30;;;;;;;13.02;11.75;;;;;;;32.14;26.79;100544.59;5051664;28;20463;-66
2022/06/30 11:34:57;;;;;;;11.35;10.52;;;;;;;32.30;26.45;100544.81;5049998;28;20124;-66
2022/06/30 11:37:27;;;;;;;11.70;9.73;;;;;;;32.12;26.53;100529.75;5044318;28;20132;-66
2022/06/30 11:40:12;;;;;;;13.90;10.00;;;;;;;31.56;26.99;100492.34;5047866;28;20087;-65
2022/06/30 11:42:39;;;;;;;10.77;9.85;;;;;;;31.67;27.00;100544.19;5046964;28;20048;-65